Terminal Aerodrome Forecast
Issued by NWS

Home | Current Version | Previous Version | Text Only | Print | Product List | Glossary On
Versions: 1 2 3 4 5 6 7 8 9 10 11 12 13 14 15 16 17 18 19 20 21
000
FTUS43 KSGF 200520
TAFBBG
TAF
KBBG 200520Z 2006/2106 VRB04KT P6SM SKC
     FM201300 16006KT P6SM SKC
     FM201700 18014G22KT P6SM SKC
     FM210000 18012KT P6SM SKC=

USA.gov is the U.S. government's official web portal to all federal, state and local government web resources and services.